Time;durP1;ratioP1;P1;durP2;ratioP2;P2;SDS_P1;SDS_P2;PMS_P1;PMS_P2;Temp;Humidity;BMP_temperature;BMP_pressure;BME280_temperature;BME280_humidity;BME280_pressure;Samples;Min_cycle;Max_cycle;Signal;HPM_P1;HPM_P2
2022/03/21 00:00:52;;;;;;;5.13;4.13;;;20.20;40.30;;;;;;5082364;27;89604;-72
2022/03/21 00:03:21;;;;;;;7.40;4.43;;;20.20;40.30;;;;;;5067522;27;88549;-72
2022/03/21 00:05:49;;;;;;;8.67;5.23;;;20.10;40.20;;;;;;5062362;27;88600;-72
2022/03/21 00:08:18;;;;;;;5.33;4.13;;;20.10;40.30;;;;;;5063150;27;88577;-71
2022/03/21 00:10:47;;;;;;;7.33;4.20;;;20.10;40.20;;;;;;5062101;27;90064;-71
2022/03/21 00:13:15;;;;;;;6.47;4.20;;;20.10;40.20;;;;;;5076950;27;90666;-71
2022/03/21 00:15:44;;;;;;;4.77;3.73;;;20.10;40.30;;;;;;5082039;27;89259;-73
2022/03/21 00:18:13;;;;;;;5.33;3.97;;;20.10;40.30;;;;;;5079858;27;88507;-71
2022/03/21 00:20:42;;;;;;;6.70;4.63;;;20.10;40.30;;;;;;5061542;27;91309;-74
2022/03/21 00:23:10;;;;;;;5.10;4.33;;;20.00;40.20;;;;;;5061652;27;89267;-74
2022/03/21 00:25:38;;;;;;;7.03;4.47;;;20.00;40.30;;;;;;5062601;27;88462;-74
2022/03/21 00:28:08;;;;;;;5.80;4.30;;;20.00;40.30;;;;;;5064046;27;88433;-74
2022/03/21 00:30:37;;;;;;;6.73;4.60;;;20.00;40.20;;;;;;5082845;27;89549;-73
2022/03/21 00:33:05;;;;;;;5.83;4.27;;;20.00;40.20;;;;;;5081888;27;88955;-73
2022/03/21 00:35:34;;;;;;;4.97;4.17;;;20.00;40.30;;;;;;5082696;27;88770;-73
2022/03/21 00:38:02;;;;;;;7.83;4.50;;;20.00;40.20;;;;;;5081923;27;88307;-73
2022/03/21 00:40:30;;;;;;;8.10;4.20;;;20.00;40.20;;;;;;5067558;27;89648;-73
2022/03/21 00:42:59;;;;;;;6.13;4.53;;;20.00;40.20;;;;;;5082033;27;89416;-72
2022/03/21 00:45:29;;;;;;;5.00;4.00;;;19.90;40.20;;;;;;5081421;27;91975;-73
2022/03/21 00:47:57;;;;;;;5.43;4.57;;;19.90;40.20;;;;;;5082594;27;88347;-72
2022/03/21 00:50:25;;;;;;;6.03;4.60;;;19.90;40.20;;;;;;5061090;27;89638;-73
2022/03/21 00:52:55;;;;;;;5.73;4.07;;;19.90;40.20;;;;;;5062706;27;90709;-73
2022/03/21 00:55:25;;;;;;;6.03;4.50;;;19.90;40.20;;;;;;5061774;27;88380;-73
2022/03/21 00:57:54;;;;;;;4.73;3.97;;;19.80;40.10;;;;;;5063345;27;88186;-73
2022/03/21 01:00:24;;;;;;;6.57;4.70;;;19.90;40.20;;;;;;5065000;27;89485;-73
2022/03/21 01:02:53;;;;;;;5.40;4.83;;;19.90;40.20;;;;;;5061467;27;89017;-74
2022/03/21 01:05:22;;;;;;;6.87;4.70;;;19.80;40.20;;;;;;5061761;27;89797;-74
2022/03/21 01:07:50;;;;;;;6.67;4.97;;;19.80;40.20;;;;;;5073197;27;88508;-73
2022/03/21 01:10:20;;;;;;;5.63;4.00;;;19.80;40.20;;;;;;5062025;27;90721;-73
2022/03/21 01:12:48;;;;;;;6.97;4.33;;;19.80;40.20;;;;;;5061813;27;90531;-73
2022/03/21 01:15:17;;;;;;;6.70;4.37;;;19.80;40.20;;;;;;5075562;27;90161;-73
2022/03/21 01:17:46;;;;;;;5.73;5.07;;;19.80;40.20;;;;;;5079117;27;90117;-73
2022/03/21 01:20:16;;;;;;;6.27;4.20;;;19.70;40.10;;;;;;5079454;27;89301;-73
2022/03/21 01:22:45;;;;;;;6.00;4.70;;;19.70;40.10;;;;;;5081843;27;90009;-73
2022/03/21 01:25:13;;;;;;;6.97;4.30;;;19.70;40.10;;;;;;5067921;27;88801;-73
2022/03/21 01:27:41;;;;;;;7.47;4.30;;;19.70;40.10;;;;;;5063145;27;88876;-75
2022/03/21 01:30:11;;;;;;;5.93;4.40;;;19.70;40.10;;;;;;5080336;27;89458;-74
2022/03/21 01:32:42;;;;;;;4.80;3.93;;;19.70;40.10;;;;;;5081477;27;89170;-74
2022/03/21 01:35:11;;;;;;;7.43;4.53;;;19.70;40.10;;;;;;5080025;27;88348;-74
2022/03/21 01:37:41;;;;;;;7.33;4.57;;;19.60;40.10;;;;;;5081008;27;88559;-73
2022/03/21 01:40:10;;;;;;;6.20;4.60;;;19.60;40.10;;;;;;5060947;27;89515;-73
2022/03/21 01:42:39;;;;;;;6.77;4.03;;;19.60;40.10;;;;;;5061323;27;91036;-73
2022/03/21 01:45:08;;;;;;;7.77;4.37;;;19.60;40.10;;;;;;5070585;27;88205;-73
2022/03/21 01:47:36;;;;;;;4.53;4.13;;;19.60;40.10;;;;;;5080607;27;88615;-74
2022/03/21 01:50:05;;;;;;;5.97;4.80;;;19.60;40.10;;;;;;5080938;27;89539;-74
2022/03/21 01:52:33;;;;;;;5.67;4.50;;;19.30;39.80;;;;;;5078250;27;90292;-73
2022/03/21 01:57:49;;;;;;;5.97;4.83;;;19.60;40.10;;;;;;5076557;27;88529;-73
2022/03/21 02:00:17;;;;;;;4.90;4.10;;;19.60;40.10;;;;;;5075993;27;93329;-73
2022/03/21 02:02:45;;;;;;;5.53;4.23;;;19.50;40.00;;;;;;5080326;27;89334;-72
2022/03/21 02:05:13;;;;;;;5.10;4.60;;;19.50;40.00;;;;;;5081383;27;88842;-73
2022/03/21 02:07:42;;;;;;;6.20;4.70;;;19.50;40.10;;;;;;5066328;27;88400;-73
2022/03/21 02:10:12;;;;;;;4.10;3.70;;;19.50;40.00;;;;;;5079134;27;90616;-73
2022/03/21 02:12:40;;;;;;;5.53;4.27;;;19.50;40.00;;;;;;5080505;27;91094;-73
2022/03/21 02:15:09;;;;;;;5.47;4.30;;;19.50;40.00;;;;;;5079698;27;88245;-74
2022/03/21 02:17:37;;;;;;;5.67;4.47;;;19.50;40.00;;;;;;5064182;27;88397;-73
2022/03/21 02:20:06;;;;;;;5.07;4.10;;;19.50;40.00;;;;;;5070888;27;90297;-73
2022/03/21 02:22:37;;;;;;;5.63;4.37;;;19.50;40.00;;;;;;5081336;27;88964;-73
2022/03/21 02:25:17;;;;;;;7.77;4.40;;;19.40;39.90;;;;;;5078155;27;89851;-74
2022/03/21 02:27:45;;;;;;;6.70;4.33;;;19.40;39.90;;;;;;5080327;27;88483;-73
2022/03/21 02:30:13;;;;;;;5.87;4.37;;;19.40;39.90;;;;;;5069239;27;92474;-73
2022/03/21 02:32:41;;;;;;;4.70;3.70;;;19.40;39.90;;;;;;5060138;27;91428;-73
2022/03/21 02:35:11;;;;;;;6.43;4.50;;;19.40;40.00;;;;;;5060594;27;91332;-73
2022/03/21 02:37:39;;;;;;;6.03;4.70;;;19.40;40.00;;;;;;5060497;27;88443;-73
2022/03/21 02:40:08;;;;;;;5.20;4.23;;;19.40;40.00;;;;;;5060291;27;90048;-73
2022/03/21 02:42:38;;;;;;;6.60;4.70;;;19.40;40.00;;;;;;5059339;27;91428;-72
2022/03/21 02:45:07;;;;;;;5.90;4.13;;;19.40;40.00;;;;;;5075754;27;91982;-73
2022/03/21 02:47:35;;;;;;;6.97;4.60;;;19.30;39.90;;;;;;5079173;27;88768;-73
2022/03/21 02:50:03;;;;;;;6.00;4.30;;;19.30;39.90;;;;;;5060180;27;91135;-73
2022/03/21 02:52:31;;;;;;;6.07;4.73;;;19.30;39.90;;;;;;5060114;27;90427;-73
2022/03/21 02:54:59;;;;;;;5.50;4.53;;;19.30;39.90;;;;;;5059685;27;89222;-73
2022/03/21 02:57:31;;;;;;;5.17;4.37;;;19.30;39.90;;;;;;5060076;27;88562;-73
2022/03/21 03:00:01;;;;;;;7.70;4.10;;;19.30;40.00;;;;;;5060205;27;90892;-73
2022/03/21 03:02:29;;;;;;;6.50;4.57;;;19.30;39.90;;;;;;5059960;27;88849;-73
2022/03/21 03:04:57;;;;;;;5.60;4.60;;;19.30;39.90;;;;;;5077179;27;88427;-73
2022/03/21 03:07:25;;;;;;;6.43;4.67;;;19.30;39.90;;;;;;5075047;27;88544;-74
2022/03/21 03:09:54;;;;;;;4.63;3.83;;;19.30;40.00;;;;;;5059806;27;90786;-73
2022/03/21 03:12:22;;;;;;;6.27;4.00;;;19.30;40.00;;;;;;5059607;27;92260;-73
2022/03/21 03:14:50;;;;;;;7.67;4.93;;;19.20;40.50;;;;;;5061848;27;89984;-73
2022/03/21 03:17:20;;;;;;;5.90;4.00;;;19.20;39.80;;;;;;5063753;27;88783;-73
2022/03/21 03:19:48;;;;;;;5.77;4.57;;;19.20;39.90;;;;;;5080332;27;89444;-73
2022/03/21 03:22:17;;;;;;;4.27;3.87;;;19.20;39.90;;;;;;5080852;27;88380;-73
2022/03/21 03:24:45;;;;;;;7.33;4.67;;;19.20;39.90;;;;;;5080481;27;91451;-73
2022/03/21 03:27:14;;;;;;;6.13;4.07;;;19.20;39.90;;;;;;5079454;27;88647;-73
2022/03/21 03:29:42;;;;;;;5.73;4.27;;;19.20;39.90;;;;;;5060184;27;89889;-73
2022/03/21 03:32:11;;;;;;;6.63;4.10;;;19.20;39.90;;;;;;5059657;27;91311;-73
2022/03/21 03:34:41;;;;;;;5.73;4.50;;;19.20;39.90;;;;;;5075731;27;88771;-73
2022/03/21 03:37:13;;;;;;;7.67;4.57;;;19.20;39.90;;;;;;5078088;27;88466;-73
2022/03/21 03:39:41;;;;;;;6.10;4.77;;;19.20;39.90;;;;;;5060434;27;88401;-73
2022/03/21 03:42:09;;;;;;;6.30;4.33;;;19.20;39.90;;;;;;5059144;27;89065;-73
2022/03/21 03:44:37;;;;;;;6.80;4.10;;;19.10;40.40;;;;;;5063740;27;88343;-73
2022/03/21 03:47:08;;;;;;;5.30;3.83;;;19.10;39.80;;;;;;5059193;27;88386;-73
2022/03/21 03:49:37;;;;;;;4.43;4.03;;;19.10;39.80;;;;;;5059639;27;90555;-73
2022/03/21 03:52:07;;;;;;;10.00;4.57;;;19.10;39.80;;;;;;5058879;27;89525;-73
2022/03/21 03:54:35;;;;;;;9.33;4.53;;;19.10;39.80;;;;;;5076714;27;88456;-73
2022/03/21 03:57:03;;;;;;;7.27;4.50;;;19.10;39.80;;;;;;5078768;27;88536;-73
2022/03/21 03:59:31;;;;;;;5.50;4.23;;;19.10;39.80;;;;;;5079498;27;90650;-73
2022/03/21 04:01:59;;;;;;;6.97;3.93;;;19.00;39.80;;;;;;5079675;27;90572;-73
2022/03/21 04:04:27;;;;;;;4.60;3.90;;;18.80;39.60;;;;;;5062082;27;89150;-73
2022/03/21 04:06:55;;;;;;;5.60;3.80;;;19.00;39.80;;;;;;5058789;27;88630;-73
2022/03/21 04:09:25;;;;;;;5.27;4.57;;;19.00;39.80;;;;;;5077667;27;91090;-73
2022/03/21 04:11:53;;;;;;;4.47;4.03;;;19.00;39.80;;;;;;5078790;27;88994;-73
2022/03/21 04:14:21;;;;;;;5.27;4.00;;;19.00;39.80;;;;;;5076398;27;88391;-73
2022/03/21 04:16:50;;;;;;;6.60;4.13;;;19.00;39.80;;;;;;5079177;27;88247;-73
2022/03/21 04:19:17;;;;;;;6.60;4.43;;;19.00;39.80;;;;;;5078483;27;88606;-73
2022/03/21 04:21:46;;;;;;;5.83;4.00;;;19.00;39.80;;;;;;5082805;27;93164;-73
2022/03/21 04:24:14;;;;;;;4.17;3.77;;;19.00;39.80;;;;;;5066668;27;88545;-73
2022/03/21 04:26:43;;;;;;;9.90;4.60;;;19.00;39.80;;;;;;5062483;27;88683;-73
2022/03/21 04:29:12;;;;;;;6.40;4.30;;;18.90;39.70;;;;;;5062317;27;90788;-73
2022/03/21 04:31:40;;;;;;;6.00;3.70;;;18.90;39.70;;;;;;5062569;27;92399;-73
2022/03/21 04:34:08;;;;;;;7.03;4.67;;;19.00;39.80;;;;;;5074813;27;89942;-73
2022/03/21 04:36:36;;;;;;;5.67;4.27;;;18.90;39.70;;;;;;5083022;27;88552;-73
2022/03/21 04:39:07;;;;;;;5.23;4.17;;;18.90;39.70;;;;;;5067061;27;89544;-73
2022/03/21 04:41:35;;;;;;;4.77;3.70;;;18.90;39.80;;;;;;5062610;27;89602;-72
2022/03/21 04:44:05;;;;;;;5.07;4.50;;;18.90;39.80;;;;;;5061682;27;88724;-73
2022/03/21 04:46:33;;;;;;;5.30;3.77;;;18.90;39.70;;;;;;5062364;27;88534;-73
2022/03/21 04:49:01;;;;;;;5.40;3.97;;;18.90;39.70;;;;;;5062070;27;90464;-73
2022/03/21 04:51:29;;;;;;;6.97;4.30;;;18.80;39.70;;;;;;5061877;27;89188;-73
2022/03/21 04:53:57;;;;;;;5.13;4.00;;;18.80;39.70;;;;;;5077249;27;88834;-73
2022/03/21 04:56:25;;;;;;;5.73;4.07;;;18.80;39.70;;;;;;5081953;27;88691;-73
2022/03/21 04:58:53;;;;;;;5.23;4.30;;;18.80;39.70;;;;;;5070261;27;89614;-73
2022/03/21 05:01:24;;;;;;;5.33;4.30;;;18.80;39.70;;;;;;5061607;27;88871;-73
2022/03/21 05:03:53;;;;;;;5.73;4.47;;;18.80;39.70;;;;;;5077848;27;88368;-73
2022/03/21 05:06:21;;;;;;;6.20;4.60;;;18.80;39.70;;;;;;5060742;27;88692;-73
2022/03/21 05:08:49;;;;;;;5.30;4.33;;;18.80;39.70;;;;;;5061787;27;92027;-73
2022/03/21 05:13:59;;;;;;;7.77;3.70;;;18.80;39.70;;;;;;5065232;27;90635;-73
2022/03/21 05:16:29;;;;;;;7.77;4.10;;;18.80;39.70;;;;;;5062849;27;88419;-66
2022/03/21 05:18:58;;;;;;;4.70;3.93;;;18.80;39.70;;;;;;5072311;27;91953;-66
2022/03/21 05:21:26;;;;;;;5.10;4.20;;;18.80;39.70;;;;;;5081821;27;90250;-66
2022/03/21 05:32:12;;;;;;;5.53;3.93;;;18.70;39.60;;;;;;5074618;27;89031;-66
2022/03/21 05:37:25;;;;;;;6.87;4.97;;;18.70;39.60;;;;;;5073211;27;88416;-73
2022/03/21 05:42:39;;;;;;;9.50;5.10;;;18.60;39.60;;;;;;5074811;27;89020;-73
2022/03/21 05:45:09;;;;;;;5.43;4.40;;;18.60;39.70;;;;;;5080899;27;88381;-74
2022/03/21 05:48:50;;;;;;;7.90;4.60;;;18.60;39.60;;;;;;5079718;27;88301;-73
2022/03/21 05:50:26;;;;;;;4.97;3.40;;;18.60;39.60;;;;;;5080599;27;91117;-73
2022/03/21 05:52:54;;;;;;;4.67;3.73;;;18.70;39.60;;;;;;5075210;27;89591;-73
2022/03/21 05:55:22;;;;;;;6.27;3.97;;;18.80;39.70;;;;;;5060882;27;88755;-73
2022/03/21 05:57:50;;;;;;;3.63;3.33;;;18.90;39.70;;;;;;5064531;27;88593;-73
2022/03/21 06:00:21;;;;;;;4.70;3.70;;;19.10;39.70;;;;;;5074096;27;91932;-73
2022/03/21 06:02:51;;;;;;;4.97;3.47;;;19.30;39.70;;;;;;5079981;27;89575;-72
2022/03/21 06:05:19;;;;;;;6.37;4.33;;;19.40;39.70;;;;;;5080916;27;89018;-73
2022/03/21 06:07:48;;;;;;;7.33;3.87;;;19.50;39.60;;;;;;5081014;27;88998;-73
2022/03/21 06:10:16;;;;;;;4.20;3.60;;;19.60;39.60;;;;;;5081190;27;90613;-73
2022/03/21 06:12:44;;;;;;;4.63;3.20;;;19.60;39.50;;;;;;5080520;27;89633;-73
2022/03/21 06:15:13;;;;;;;7.23;3.60;;;19.70;39.50;;;;;;5080733;27;88347;-73
2022/03/21 06:17:41;;;;;;;6.17;4.00;;;19.80;39.50;;;;;;5081119;27;88771;-73
2022/03/21 06:20:11;;;;;;;5.20;3.87;;;19.80;39.40;;;;;;5081615;27;90618;-73
2022/03/21 06:22:40;;;;;;;5.90;4.27;;;19.80;39.40;;;;;;5077832;27;90146;-73
2022/03/21 06:25:08;;;;;;;6.00;4.07;;;19.80;39.40;;;;;;5079530;27;88563;-73
2022/03/21 06:27:38;;;;;;;4.07;3.47;;;19.80;39.40;;;;;;5073786;27;88642;-73
2022/03/21 06:30:07;;;;;;;6.10;4.60;;;19.80;39.40;;;;;;5075617;27;89254;-73
2022/03/21 06:32:35;;;;;;;6.10;4.33;;;19.80;39.40;;;;;;5079706;27;90065;-73
2022/03/21 06:35:03;;;;;;;4.30;3.53;;;19.80;39.30;;;;;;5080096;27;88398;-73
2022/03/21 06:37:33;;;;;;;7.07;4.50;;;19.80;39.30;;;;;;5080479;27;88606;-73
2022/03/21 06:40:01;;;;;;;6.40;4.17;;;19.90;39.40;;;;;;5080551;27;90554;-73
2022/03/21 06:42:29;;;;;;;5.57;4.40;;;19.80;39.30;;;;;;5078836;27;90041;-72
2022/03/21 06:44:57;;;;;;;6.03;4.47;;;19.80;39.30;;;;;;5080927;27;88314;-73
2022/03/21 06:47:25;;;;;;;5.33;3.53;;;19.80;39.30;;;;;;5080367;27;88503;-73
2022/03/21 06:49:53;;;;;;;5.37;3.70;;;19.80;39.30;;;;;;5079700;27;89551;-73
2022/03/21 06:52:21;;;;;;;6.27;4.13;;;19.80;39.30;;;;;;5078508;27;89036;-73
2022/03/21 06:54:51;;;;;;;4.87;3.70;;;19.80;39.30;;;;;;5062575;27;90203;-73
2022/03/21 06:57:19;;;;;;;5.17;4.07;;;19.80;39.30;;;;;;5059890;27;88694;-73
2022/03/21 06:59:47;;;;;;;4.60;3.97;;;19.80;39.30;;;;;;5067140;27;90596;-73
2022/03/21 07:02:16;;;;;;;5.17;4.33;;;19.70;39.20;;;;;;5059670;27;90149;-72
2022/03/21 07:04:45;;;;;;;5.03;3.73;;;19.70;39.30;;;;;;5066475;27;88495;-72
2022/03/21 07:07:13;;;;;;;4.37;3.60;;;19.70;39.30;;;;;;5075639;27;88835;-71
2022/03/21 07:09:41;;;;;;;5.03;3.67;;;19.70;39.50;;;;;;5075195;27;90634;-71
2022/03/21 07:12:11;;;;;;;6.33;4.20;;;19.80;39.70;;;;;;5068817;27;89564;-72
2022/03/21 07:14:39;;;;;;;4.60;3.40;;;19.70;39.80;;;;;;5079788;27;88296;-73
2022/03/21 07:17:07;;;;;;;6.20;4.83;;;19.80;40.00;;;;;;5080313;27;88472;-72
2022/03/21 07:19:35;;;;;;;5.03;4.03;;;19.80;40.20;;;;;;5060818;27;90655;-72
2022/03/21 07:22:06;;;;;;;6.50;4.00;;;19.90;40.40;;;;;;5072110;27;90087;-72
2022/03/21 07:24:34;;;;;;;6.30;4.07;;;20.00;40.50;;;;;;5073150;27;88591;-73
2022/03/21 07:27:03;;;;;;;18.73;4.03;;;20.10;40.70;;;;;;5059821;27;88345;-72
2022/03/21 07:29:32;;;;;;;7.87;4.23;;;20.20;40.70;;;;;;5069143;27;89597;-72
2022/03/21 07:32:00;;;;;;;6.27;3.40;;;20.40;41.50;;;;;;5064369;27;89015;-72
2022/03/21 07:34:28;;;;;;;5.17;3.60;;;20.50;40.90;;;;;;5064212;27;88354;-72
2022/03/21 07:36:56;;;;;;;4.60;3.83;;;20.70;40.90;;;;;;5067107;27;88524;-72
2022/03/21 07:39:24;;;;;;;4.57;3.43;;;20.90;41.00;;;;;;5069568;27;89482;-72
2022/03/21 07:41:59;;;;;;;5.17;3.83;;;21.00;40.90;;;;;;5066373;27;89993;-71
2022/03/21 07:47:24;;;;;;;4.17;3.27;;;21.40;40.90;;;;;;5079537;27;88506;-72
2022/03/21 07:49:52;;;;;;;5.70;3.67;;;21.50;40.80;;;;;;5074018;27;89419;-73
2022/03/21 07:52:20;;;;;;;4.57;3.50;;;21.70;40.80;;;;;;5079122;27;89372;-72
2022/03/21 07:54:51;;;;;;;5.47;3.23;;;21.80;40.80;;;;;;5075600;27;90853;-72
2022/03/21 07:57:19;;;;;;;5.40;3.37;;;21.90;40.80;;;;;;5066781;27;88681;-72
2022/03/21 07:59:47;;;;;;;5.23;3.73;;;22.00;40.70;;;;;;5065352;27;90717;-72
2022/03/21 08:02:18;;;;;;;5.43;3.60;;;22.10;41.30;;;;;;5075283;27;89017;-72
2022/03/21 08:04:47;;;;;;;3.97;3.17;;;22.20;40.60;;;;;;5081963;27;89520;-71
2022/03/21 08:07:21;;;;;;;6.17;3.90;;;22.30;40.60;;;;;;5067027;27;88414;-72
2022/03/21 08:09:49;;;;;;;5.47;4.07;;;22.40;40.60;;;;;;5082673;27;89624;-72
2022/03/21 08:12:17;;;;;;;4.17;3.67;;;22.50;40.60;;;;;;5082607;27;88969;-72
2022/03/21 08:14:45;;;;;;;5.07;4.03;;;22.50;40.50;;;;;;5082066;27;91535;-71
2022/03/21 08:17:13;;;;;;;7.30;3.63;;;22.60;40.50;;;;;;5082961;27;88452;-73
2022/03/21 08:19:42;;;;;;;3.93;3.13;;;22.60;40.50;;;;;;5082384;27;89568;-72
2022/03/21 08:22:10;;;;;;;5.07;3.30;;;22.60;40.50;;;;;;5082908;27;89050;-72
2022/03/21 08:24:38;;;;;;;4.60;3.30;;;22.60;40.50;;;;;;5078112;27;90113;-72
2022/03/21 08:27:06;;;;;;;4.27;3.37;;;22.60;40.50;;;;;;5063149;27;88350;-73
2022/03/21 08:29:34;;;;;;;3.47;2.90;;;22.60;40.50;;;;;;5079483;27;89297;-73
2022/03/21 08:32:02;;;;;;;4.33;3.23;;;22.70;40.50;;;;;;5081950;27;89014;-72
2022/03/21 08:34:30;;;;;;;4.83;3.47;;;22.70;40.40;;;;;;5080926;27;88827;-72
2022/03/21 08:37:00;;;;;;;4.00;3.37;;;22.80;40.40;;;;;;5067176;27;88459;-72
2022/03/21 08:39:28;;;;;;;4.07;2.87;;;22.90;40.40;;;;;;5062111;27;90950;-73
2022/03/21 08:41:56;;;;;;;5.00;3.60;;;23.00;40.40;;;;;;5061615;27;90094;-73
2022/03/21 08:44:24;;;;;;;4.63;3.60;;;23.00;40.30;;;;;;5062115;27;90539;-72
2022/03/21 08:46:52;;;;;;;3.70;2.87;;;23.10;40.20;;;;;;5062325;27;88471;-72
2022/03/21 08:49:27;;;;;;;3.80;3.13;;;23.20;40.20;;;;;;5062213;27;90707;-72
2022/03/21 08:52:01;;;;;;;5.03;3.60;;;23.20;40.20;;;;;;5073217;27;89342;-73
2022/03/21 08:54:29;;;;;;;5.10;3.53;;;23.30;40.10;;;;;;5077287;27;88831;-73
2022/03/21 08:56:57;;;;;;;4.73;3.43;;;23.40;40.10;;;;;;5081857;27;88408;-73
2022/03/21 08:59:25;;;;;;;4.77;3.63;;;23.40;40.00;;;;;;5082639;27;89685;-73
2022/03/21 09:01:55;;;;;;;3.67;2.93;;;23.50;40.00;;;;;;5083476;27;88949;-73
2022/03/21 09:04:23;;;;;;;6.13;3.77;;;23.60;40.00;;;;;;5098147;27;88766;-73
2022/03/21 09:06:51;;;;;;;4.13;3.13;;;23.60;40.60;;;;;;5081003;27;89044;-73
2022/03/21 09:09:21;;;;;;;4.43;3.33;;;23.70;39.90;;;;;;5081843;27;89695;-73
2022/03/21 09:11:55;;;;;;;4.07;3.10;;;23.70;39.90;;;;;;5081872;27;89714;-73
2022/03/21 09:14:23;;;;;;;4.40;3.27;;;23.80;39.80;;;;;;5079314;27;88795;-72
2022/03/21 09:16:52;;;;;;;4.03;3.10;;;23.80;39.70;;;;;;5082910;27;88865;-73
2022/03/21 09:19:23;;;;;;;5.17;3.30;;;23.90;39.80;;;;;;5082204;27;90967;-73
2022/03/21 09:21:54;;;;;;;3.10;2.80;;;24.00;39.70;;;;;;5081697;27;92300;-72
2022/03/21 09:24:23;;;;;;;4.83;3.60;;;24.00;39.70;;;;;;5081157;27;88931;-72
2022/03/21 09:26:51;;;;;;;4.03;3.13;;;24.10;39.70;;;;;;5081681;27;88379;-72
2022/03/21 09:29:20;;;;;;;3.37;2.97;;;24.10;39.60;;;;;;5077813;27;92909;-73
2022/03/21 09:31:48;;;;;;;4.13;3.43;;;24.20;39.60;;;;;;5069791;27;92543;-73
2022/03/21 09:34:17;;;;;;;6.27;3.03;;;24.20;39.60;;;;;;5061706;27;90635;-73
2022/03/21 09:36:45;;;;;;;5.87;2.90;;;24.20;39.60;;;;;;5081605;27;88689;-73
2022/03/21 09:39:14;;;;;;;2.90;2.60;;;24.20;39.60;;;;;;5081298;27;90675;-73
2022/03/21 09:41:44;;;;;;;4.10;2.90;;;24.10;39.50;;;;;;5073313;27;91255;-72
2022/03/21 09:44:12;;;;;;;3.80;3.13;;;24.00;39.50;;;;;;5071731;27;89482;-72
2022/03/21 09:46:41;;;;;;;3.93;3.53;;;24.00;39.50;;;;;;5064660;27;89309;-73
2022/03/21 09:49:10;;;;;;;4.33;3.10;;;23.90;39.60;;;;;;5061096;27;89487;-73
2022/03/21 09:51:39;;;;;;;4.37;3.47;;;23.90;39.60;;;;;;5061223;27;89673;-73
2022/03/21 09:54:09;;;;;;;4.37;3.10;;;23.80;39.60;;;;;;5061094;27;88735;-73
2022/03/21 09:56:38;;;;;;;4.03;3.13;;;23.70;39.60;;;;;;5039898;28;88767;-73
2022/03/21 09:59:08;;;;;;;3.67;2.87;;;23.70;39.70;;;;;;5036409;28;89572;-73
2022/03/21 10:01:36;;;;;;;4.80;3.07;;;23.60;39.70;;;;;;5037787;27;92651;-73
2022/03/21 10:04:06;;;;;;;3.97;3.03;;;23.60;39.80;;;;;;5041605;28;88336;-73
2022/03/21 10:06:35;;;;;;;3.87;3.40;;;23.50;39.70;;;;;;5041882;28;88448;-73
2022/03/21 10:09:12;;;;;;;4.70;3.30;;;23.50;39.80;;;;;;5037863;28;92976;-73
2022/03/21 10:11:43;;;;;;;3.00;2.57;;;23.40;39.80;;;;;;5027434;27;90497;-73
2022/03/21 10:14:32;;;;;;;3.90;2.97;;;23.30;39.80;;;;;;5041308;28;91254;-73
2022/03/21 10:17:03;;;;;;;4.23;2.97;;;23.30;39.90;;;;;;5031703;27;88564;-73
2022/03/21 10:19:44;;;;;;;4.10;2.80;;;23.30;39.90;;;;;;5042576;28;93734;-73
2022/03/21 10:22:14;;;;;;;4.13;3.07;;;23.20;40.00;;;;;;5042685;28;89452;-73
2022/03/21 10:24:43;;;;;;;3.23;2.73;;;23.10;39.90;;;;;;5039611;28;89021;-71
2022/03/21 10:27:27;;;;;;;4.30;2.60;;;23.10;40.00;;;;;;5040417;28;88599;-72
2022/03/21 10:29:59;;;;;;;2.83;2.47;;;23.00;40.00;;;;;;5038974;27;89637;-73
2022/03/21 10:32:32;;;;;;;4.93;2.93;;;23.10;40.10;;;;;;5041110;28;90023;-72
2022/03/21 10:35:01;;;;;;;6.10;3.40;;;23.00;40.20;;;;;;5039132;27;88507;-72
2022/03/21 10:37:40;;;;;;;5.83;2.60;;;23.00;40.20;;;;;;5025055;28;88623;-73
2022/03/21 10:40:20;;;;;;;3.70;2.73;;;22.90;40.20;;;;;;5040777;28;88974;-72
2022/03/21 10:42:55;;;;;;;4.80;2.67;;;22.90;40.20;;;;;;5019503;28;92675;-72
2022/03/21 10:45:25;;;;;;;3.27;2.80;;;22.90;40.30;;;;;;5032856;28;88798;-73
2022/03/21 10:47:56;;;;;;;3.33;2.63;;;22.90;40.30;;;;;;5041232;28;88379;-72
2022/03/21 10:50:28;;;;;;;5.83;2.13;;;22.90;40.40;;;;;;5040326;28;89480;-72
2022/03/21 10:53:07;;;;;;;3.30;3.00;;;22.80;40.40;;;;;;5040249;28;88810;-72
2022/03/21 10:55:35;;;;;;;3.10;2.67;;;22.80;40.50;;;;;;5061383;27;89647;-73
2022/03/21 10:58:04;;;;;;;3.87;2.77;;;22.80;40.60;;;;;;5080882;27;88552;-72
2022/03/21 11:00:33;;;;;;;3.90;2.70;;;22.80;40.70;;;;;;5074301;27;90764;-72
2022/03/21 11:03:05;;;;;;;3.17;2.73;;;22.80;40.70;;;;;;5074432;27;90007;-73
2022/03/21 11:05:35;;;;;;;3.80;2.40;;;22.80;40.70;;;;;;5070038;27;89333;-73
2022/03/21 11:08:04;;;;;;;6.53;2.60;;;22.80;40.80;;;;;;5066588;27;89820;-73
2022/03/21 11:10:32;;;;;;;3.43;2.60;;;22.80;40.80;;;;;;5066536;27;92047;-73
2022/03/21 11:13:02;;;;;;;5.07;2.50;;;22.80;40.90;;;;;;5060451;27;89003;-74
2022/03/21 11:15:30;;;;;;;4.13;2.87;;;22.70;40.90;;;;;;5059517;27;88748;-73
2022/03/21 11:18:00;;;;;;;3.87;2.63;;;22.70;40.90;;;;;;5069641;27;88466;-73
2022/03/21 11:20:29;;;;;;;3.03;2.43;;;22.70;40.90;;;;;;5080530;27;89387;-73
2022/03/21 11:22:57;;;;;;;3.53;2.13;;;22.70;40.90;;;;;;5080593;27;89254;-73
2022/03/21 11:25:28;;;;;;;3.47;2.80;;;22.70;40.90;;;;;;5067660;27;88938;-73
2022/03/21 11:28:16;;;;;;;3.40;2.77;;;22.70;40.90;;;;;;5059948;27;88363;-73
2022/03/21 11:31:01;;;;;;;4.63;2.63;;;22.70;40.80;;;;;;5058945;27;90186;-73
2022/03/21 11:33:36;;;;;;;3.27;2.90;;;22.70;40.80;;;;;;5059942;27;88562;-73
2022/03/21 11:36:06;;;;;;;2.93;2.10;;;22.60;40.70;;;;;;5076393;27;90937;-73
2022/03/21 11:38:35;;;;;;;4.73;2.63;;;22.60;40.70;;;;;;5080082;27;88602;-73
2022/03/21 11:41:11;;;;;;;3.37;2.30;;;22.60;40.70;;;;;;5079847;27;90736;-73
2022/03/21 11:43:39;;;;;;;5.57;2.67;;;22.60;40.70;;;;;;5079571;27;90063;-73
2022/03/21 11:46:29;;;;;;;6.37;2.67;;;22.60;40.70;;;;;;5062591;27;89486;-73
2022/03/21 11:48:59;;;;;;;3.97;2.23;;;22.60;40.70;;;;;;5059421;27;88590;-73
2022/03/21 11:51:43;;;;;;;2.43;2.13;;;22.60;40.70;;;;;;5059672;27;94013;-73
2022/03/21 11:54:27;;;;;;;4.13;2.40;;;22.50;40.60;;;;;;5059122;27;90968;-73
2022/03/21 11:56:59;;;;;;;2.87;2.40;;;22.50;41.30;;;;;;5080067;27;89870;-73
2022/03/21 11:59:47;;;;;;;1.93;1.83;;;22.50;40.60;;;;;;5079766;27;88464;-73
2022/03/21 12:02:55;;;;;;;3.33;2.70;;;22.50;40.70;;;;;;5079866;27;90135;-73
2022/03/21 12:05:53;;;;;;;2.63;2.43;;;22.50;40.70;;;;;;5069002;27;90104;-73
2022/03/21 12:08:48;;;;;;;2.17;1.97;;;22.40;40.60;;;;;;5059429;27;89259;-73
2022/03/21 12:12:03;;;;;;;3.83;1.90;;;22.40;40.60;;;;;;5059744;27;88571;-73
2022/03/21 12:14:43;;;;;;;2.47;2.10;;;22.40;40.60;;;;;;5060806;27;91522;-73
2022/03/21 12:17:28;;;;;;;3.63;2.20;;;22.40;40.60;;;;;;5078932;27;90241;-73
2022/03/21 12:20:03;;;;;;;4.00;2.30;;;22.40;40.60;;;;;;5080040;27;88234;-73
2022/03/21 12:23:00;;;;;;;3.27;1.90;;;22.40;40.60;;;;;;5080097;27;88507;-73
2022/03/21 12:25:46;;;;;;;2.30;1.70;;;22.40;40.50;;;;;;5077566;27;91725;-73
2022/03/21 12:29:31;;;;;;;2.83;2.13;;;22.40;40.50;;;;;;5079289;27;90032;-73
2022/03/21 12:31:23;;;;;;;2.73;2.30;;;22.40;40.50;;;;;;5079109;27;90175;-73
2022/03/21 12:33:51;;;;;;;2.23;1.73;;;22.40;40.50;;;;;;5079144;27;88563;-73
2022/03/21 12:36:31;;;;;;;3.23;2.10;;;22.40;40.50;;;;;;5059074;27;90627;-73
2022/03/21 12:39:00;;;;;;;2.47;1.87;;;22.40;40.50;;;;;;5058634;27;90040;-73
2022/03/21 12:41:33;;;;;;;2.57;1.90;;;22.40;40.40;;;;;;5060827;27;89000;-73
2022/03/21 12:44:01;;;;;;;2.20;1.90;;;22.40;40.40;;;;;;5063167;27;88597;-73
2022/03/21 12:46:29;;;;;;;2.30;1.80;;;22.40;40.40;;;;;;5082189;27;90570;-74
2022/03/21 12:48:58;;;;;;;1.50;1.40;;;22.40;40.30;;;;;;5082398;27;92510;-73
2022/03/21 12:51:28;;;;;;;2.60;1.77;;;22.40;40.40;;;;;;5081879;27;88878;-73
2022/03/21 12:54:17;;;;;;;3.17;2.60;;;22.40;40.30;;;;;;5077620;27;88538;-73
2022/03/21 12:56:45;;;;;;;2.03;1.87;;;22.40;40.30;;;;;;5062265;27;90658;-73
2022/03/21 12:59:14;;;;;;;2.67;2.00;;;22.40;40.30;;;;;;5061993;27;92053;-75
2022/03/21 13:01:43;;;;;;;3.33;1.97;;;22.40;40.30;;;;;;5062305;27;88324;-73
2022/03/21 13:12:33;;;;;;;2.97;2.10;;;22.40;40.20;;;;;;5081500;27;88993;-73
2022/03/21 13:15:02;;;;;;;3.13;2.00;;;22.40;40.20;;;;;;5069492;27;88561;-73
2022/03/21 13:17:51;;;;;;;3.37;2.23;;;22.40;40.20;;;;;;5061688;27;90879;-73
2022/03/21 13:20:23;;;;;;;2.10;1.90;;;22.40;40.20;;;;;;5062124;27;89251;-73
2022/03/21 13:22:53;;;;;;;2.13;1.77;;;22.40;40.20;;;;;;5062035;27;88399;-73
2022/03/21 13:25:29;;;;;;;3.57;1.90;;;22.40;40.20;;;;;;5079088;27;88454;-73
2022/03/21 13:28:11;;;;;;;2.57;1.90;;;22.40;40.20;;;;;;5081957;27;90725;-73
2022/03/21 13:30:52;;;;;;;3.27;2.30;;;22.40;40.20;;;;;;5081915;27;90077;-73
2022/03/21 13:33:21;;;;;;;3.00;1.93;;;22.50;40.20;;;;;;5081521;27;88249;-73
2022/03/21 13:35:53;;;;;;;3.67;2.13;;;22.50;40.20;;;;;;5070341;27;88545;-73